createdAt,value
2018-07-07T00:03:59.370Z,16.50
2018-07-07T00:08:02.597Z,16.40
2018-07-07T00:12:05.805Z,16.40
2018-07-07T00:16:09.040Z,16.40
2018-07-07T00:20:12.334Z,16.50
2018-07-07T00:24:15.541Z,16.50
2018-07-07T00:28:18.756Z,16.50
2018-07-07T00:32:21.997Z,16.40
2018-07-07T00:40:28.200Z,16.20
2018-07-07T00:48:34.402Z,16.00
2018-07-07T00:56:40.576Z,16.10
2018-07-07T01:00:51.946Z,16.20
2018-07-07T01:04:55.466Z,16.20
2018-07-07T01:08:58.884Z,16.30
2018-07-07T01:13:02.104Z,16.30
2018-07-07T01:17:05.385Z,16.30
2018-07-07T01:21:08.616Z,16.30
2018-07-07T01:29:14.790Z,16.40
2018-07-07T01:33:18.016Z,16.40
2018-07-07T01:37:21.243Z,16.40
2018-07-07T01:41:24.478Z,16.30
2018-07-07T01:45:27.716Z,16.10
2018-07-07T01:49:30.971Z,16.20
2018-07-07T01:53:34.184Z,16.20
2018-07-07T01:57:37.384Z,16.30
2018-07-07T02:01:40.749Z,16.50
2018-07-07T02:05:44.791Z,16.60
2018-07-07T02:13:50.957Z,16.80
2018-07-07T02:17:54.180Z,16.60
2018-07-07T02:26:00.346Z,16.50
2018-07-07T02:30:03.581Z,16.40
2018-07-07T02:34:06.806Z,16.50
2018-07-07T02:42:13.008Z,16.30
2018-07-07T02:46:16.293Z,16.30
2018-07-07T02:50:19.453Z,16.30
2018-07-07T02:58:25.621Z,16.40
2018-07-07T03:02:28.837Z,16.40
2018-07-07T03:06:32.049Z,16.50
2018-07-07T03:10:35.384Z,16.50
2018-07-07T03:14:38.593Z,16.40
2018-07-07T03:18:41.833Z,16.70
2018-07-07T03:22:45.765Z,16.70
2018-07-07T03:26:48.993Z,16.50
2018-07-07T03:30:53.653Z,16.60
2018-07-07T03:38:59.901Z,16.60
2018-07-07T03:47:06.068Z,16.60
2018-07-07T03:51:09.307Z,16.70
2018-07-07T03:59:15.468Z,16.80
2018-07-07T04:03:18.689Z,16.80
2018-07-07T04:07:21.961Z,16.90
2018-07-07T04:11:25.118Z,17.00
2018-07-07T04:19:31.368Z,17.20
2018-07-07T04:23:35.120Z,17.20
2018-07-07T04:27:38.344Z,17.20
2018-07-07T04:31:41.590Z,17.30
2018-07-07T04:35:44.836Z,17.40
2018-07-07T04:39:48.041Z,17.70
2018-07-07T04:43:51.384Z,17.50
2018-07-07T04:47:54.617Z,17.20
2018-07-07T04:51:57.870Z,17.30
2018-07-07T05:00:04.354Z,17.90
2018-07-07T05:04:07.578Z,17.80
2018-07-07T05:12:13.802Z,17.50
2018-07-07T05:16:17.009Z,17.70
2018-07-07T05:20:20.214Z,18.00
2018-07-07T05:24:23.453Z,18.10
2018-07-07T05:28:26.666Z,18.20
2018-07-07T05:32:29.967Z,18.30
2018-07-07T05:36:33.180Z,18.40
2018-07-07T05:40:36.501Z,18.40
2018-07-07T05:44:39.732Z,18.10
2018-07-07T05:48:42.968Z,18.20
2018-07-07T05:52:46.204Z,18.50
2018-07-07T05:56:49.428Z,18.70
2018-07-07T06:00:52.650Z,18.80
2018-07-07T06:04:55.860Z,18.90
2018-07-07T06:13:02.037Z,19.20
2018-07-07T06:17:05.401Z,19.30
2018-07-07T06:21:08.637Z,19.90
2018-07-07T06:25:11.852Z,20.40
2018-07-07T06:29:15.105Z,20.80
2018-07-07T06:33:18.357Z,21.20
2018-07-07T06:37:21.637Z,21.40
2018-07-07T06:41:24.809Z,21.40
2018-07-07T06:45:28.031Z,21.30
2018-07-07T06:49:31.295Z,21.00
2018-07-07T06:57:37.513Z,21.20
2018-07-07T07:01:40.903Z,20.80
2018-07-07T07:09:47.090Z,21.60
2018-07-07T07:13:50.319Z,21.90
2018-07-07T07:17:53.532Z,22.00
2018-07-07T07:21:56.757Z,21.80
2018-07-07T07:26:00.029Z,21.60
2018-07-07T07:30:03.197Z,21.70
2018-07-07T07:34:06.441Z,21.80
2018-07-07T07:38:09.667Z,22.00
2018-07-07T07:42:12.900Z,22.10
2018-07-07T07:46:16.134Z,21.90
2018-07-07T07:54:22.446Z,22.30
2018-07-07T08:02:28.663Z,22.70
2018-07-07T08:06:31.877Z,22.90
2018-07-07T08:10:35.108Z,22.90
2018-07-07T08:14:38.348Z,23.00
2018-07-07T08:18:41.629Z,22.90
2018-07-07T08:22:44.856Z,23.20
2018-07-07T08:26:48.126Z,23.00
2018-07-07T08:30:51.378Z,23.10
2018-07-07T08:34:55.065Z,23.10
2018-07-07T08:38:58.296Z,23.40
2018-07-07T08:47:04.482Z,23.80
2018-07-07T08:51:07.717Z,24.00
2018-07-07T08:55:10.924Z,24.00
2018-07-07T08:59:14.179Z,23.80
2018-07-07T09:03:17.401Z,24.00
2018-07-07T09:11:23.623Z,24.60
2018-07-07T09:15:27.293Z,24.50
2018-07-07T09:19:30.523Z,24.30
2018-07-07T09:23:33.757Z,24.40
2018-07-07T09:27:36.969Z,24.70
2018-07-07T09:31:40.205Z,25.00
2018-07-07T09:35:43.441Z,25.30
2018-07-07T09:39:46.668Z,25.40
2018-07-07T09:43:50.241Z,25.60
2018-07-07T09:47:53.470Z,26.00
2018-07-07T09:55:59.692Z,25.50
2018-07-07T10:00:02.952Z,25.20
2018-07-07T10:04:06.172Z,26.00
2018-07-07T10:12:12.798Z,27.20
2018-07-07T10:16:16.032Z,26.50
2018-07-07T10:20:19.258Z,26.70
2018-07-07T10:24:22.490Z,26.00
2018-07-07T10:28:25.740Z,25.90
2018-07-07T10:32:28.968Z,25.70
2018-07-07T10:36:32.188Z,25.90
2018-07-07T10:40:35.412Z,26.40
2018-07-07T10:48:41.601Z,26.00
2018-07-07T10:52:44.833Z,26.40
2018-07-07T10:56:48.048Z,27.70
2018-07-07T11:00:51.297Z,29.50
2018-07-07T11:04:54.524Z,29.90
2018-07-07T11:13:00.730Z,31.80
2018-07-07T11:17:03.966Z,32.00
2018-07-07T11:21:07.185Z,33.30
2018-07-07T11:25:10.419Z,30.60
2018-07-07T11:29:13.625Z,30.40
2018-07-07T11:33:16.852Z,31.20
2018-07-07T11:41:23.638Z,33.90
2018-07-07T11:45:26.866Z,31.20
2018-07-07T11:49:30.085Z,32.80
2018-07-07T11:53:33.337Z,32.60
2018-07-07T11:57:36.566Z,33.60
2018-07-07T12:01:39.801Z,31.80
2018-07-07T12:05:43.034Z,33.80
2018-07-07T12:09:46.282Z,34.20
2018-07-07T12:13:49.838Z,33.60
2018-07-07T12:17:53.061Z,34.00
2018-07-07T12:21:56.307Z,34.80
2018-07-07T12:25:59.537Z,35.90
2018-07-07T12:30:02.765Z,32.30
2018-07-07T12:34:06.193Z,30.60
2018-07-07T12:38:09.409Z,33.10
2018-07-07T12:42:12.641Z,35.70
2018-07-07T12:46:15.856Z,35.10
2018-07-07T12:50:19.084Z,34.30
2018-07-07T12:54:22.314Z,33.00
2018-07-07T12:58:25.542Z,33.50
2018-07-07T13:02:28.781Z,32.00
2018-07-07T13:06:32.001Z,33.40
2018-07-07T13:10:35.260Z,32.80
2018-07-07T13:14:38.486Z,31.60
2018-07-07T13:18:41.733Z,34.10
2018-07-07T13:22:44.955Z,33.90
2018-07-07T13:26:48.270Z,35.20
2018-07-07T13:34:54.405Z,34.40
2018-07-07T13:38:57.631Z,33.20
2018-07-07T13:43:00.832Z,34.00
2018-07-07T13:47:04.169Z,34.30
2018-07-07T13:51:07.408Z,34.20
2018-07-07T13:59:13.645Z,32.80
2018-07-07T14:03:16.866Z,32.80
2018-07-07T14:07:20.105Z,34.30
2018-07-07T14:11:23.349Z,35.80
2018-07-07T14:15:26.577Z,34.60
2018-07-07T14:19:29.838Z,34.50
2018-07-07T14:27:36.005Z,33.50
2018-07-07T14:31:39.242Z,33.90
2018-07-07T14:39:53.309Z,32.00
2018-07-07T14:44:00.891Z,33.10
2018-07-07T14:48:04.890Z,32.80
2018-07-07T14:52:08.133Z,33.80
2018-07-07T14:56:11.452Z,33.50
2018-07-07T15:04:20.846Z,30.60
2018-07-07T15:12:27.017Z,33.00
2018-07-07T15:16:30.240Z,33.40
2018-07-07T15:24:36.453Z,33.30
2018-07-07T15:32:42.638Z,30.90
2018-07-07T15:36:45.858Z,31.30
2018-07-07T15:40:49.100Z,32.00
2018-07-07T15:44:52.349Z,31.80
2018-07-07T15:48:55.570Z,31.50
2018-07-07T15:52:58.833Z,30.80
2018-07-07T15:57:02.071Z,32.30
2018-07-07T16:05:08.281Z,30.40
2018-07-07T16:09:11.506Z,30.00
2018-07-07T16:13:14.736Z,29.90
2018-07-07T16:17:17.962Z,31.30
2018-07-07T16:21:21.198Z,30.10
2018-07-07T16:25:24.429Z,30.50
2018-07-07T16:29:27.685Z,30.60
2018-07-07T16:33:30.905Z,31.20
2018-07-07T16:41:37.200Z,31.10
2018-07-07T16:49:43.506Z,31.40
2018-07-07T16:57:50.477Z,31.90
2018-07-07T17:01:53.760Z,31.30
2018-07-07T17:05:57.036Z,30.60
2018-07-07T17:14:03.277Z,30.00
2018-07-07T17:18:06.573Z,29.70
2018-07-07T17:22:09.816Z,29.70
2018-07-07T17:26:13.475Z,29.80
2018-07-07T17:34:19.921Z,30.90
2018-07-07T17:38:23.219Z,30.30
2018-07-07T17:42:26.496Z,30.20
2018-07-07T17:46:29.713Z,30.20
2018-07-07T17:50:32.946Z,30.90
2018-07-07T17:54:36.201Z,31.40
2018-07-07T18:02:42.426Z,31.40
2018-07-07T18:06:45.641Z,31.20
2018-07-07T18:10:48.869Z,31.00
2018-07-07T18:14:52.112Z,29.50
2018-07-07T18:18:55.340Z,29.20
2018-07-07T18:22:58.569Z,29.00
2018-07-07T18:27:02.096Z,28.70
2018-07-07T18:31:05.356Z,28.50
2018-07-07T18:35:08.583Z,28.30
2018-07-07T18:39:11.797Z,27.80
2018-07-07T18:43:15.085Z,27.70
2018-07-07T18:47:18.313Z,27.00
2018-07-07T18:51:21.541Z,26.80
2018-07-07T18:55:24.753Z,26.20
2018-07-07T18:59:28.439Z,25.70
2018-07-07T19:03:31.677Z,25.10
2018-07-07T19:07:34.928Z,24.80
2018-07-07T19:11:38.350Z,24.50
2018-07-07T19:15:45.354Z,24.40
2018-07-07T19:19:48.598Z,24.20
2018-07-07T19:23:57.152Z,23.90
2018-07-07T19:28:00.397Z,23.70
2018-07-07T19:32:08.900Z,23.50
2018-07-07T19:36:17.538Z,23.40
2018-07-07T19:40:20.764Z,23.20
2018-07-07T19:44:24.668Z,23.10
2018-07-07T19:48:27.894Z,22.90
2018-07-07T19:52:31.155Z,22.80
2018-07-07T19:56:34.442Z,22.60
2018-07-07T20:00:37.689Z,22.60
2018-07-07T20:04:40.917Z,22.40
2018-07-07T20:08:44.142Z,22.30
2018-07-07T20:17:11.192Z,22.10
2018-07-07T20:21:57.837Z,22.00
2018-07-07T20:26:01.820Z,21.90
2018-07-07T20:30:05.086Z,21.80
2018-07-07T20:34:08.309Z,21.70
2018-07-07T20:38:11.678Z,21.60
2018-07-07T20:46:17.853Z,21.40
2018-07-07T20:50:21.132Z,21.30
2018-07-07T20:54:24.379Z,21.20
2018-07-07T20:58:27.614Z,21.10
2018-07-07T21:02:30.828Z,21.00
2018-07-07T21:06:34.382Z,21.00
2018-07-07T21:10:37.668Z,20.90
2018-07-07T21:14:40.892Z,20.80
2018-07-07T21:18:44.126Z,20.70
2018-07-07T21:26:50.297Z,20.50
2018-07-07T21:30:53.549Z,20.30
2018-07-07T21:34:56.762Z,20.30
2018-07-07T21:38:59.982Z,20.10
2018-07-07T21:43:03.237Z,20.10
2018-07-07T21:51:09.408Z,19.90
2018-07-07T21:55:12.662Z,19.80
2018-07-07T21:59:17.760Z,19.80
2018-07-07T22:03:26.404Z,19.60
2018-07-07T22:07:34.917Z,19.50
2018-07-07T22:11:38.142Z,19.40
2018-07-07T22:15:41.360Z,19.40
2018-07-07T22:19:44.610Z,19.30
2018-07-07T22:23:47.912Z,19.20
2018-07-07T22:27:51.151Z,19.20
2018-07-07T22:31:55.199Z,19.00
2018-07-07T22:36:05.753Z,18.90
2018-07-07T22:40:08.995Z,18.80
2018-07-07T22:44:12.216Z,18.70
2018-07-07T22:48:15.441Z,18.60
2018-07-07T22:52:19.154Z,18.50
2018-07-07T22:56:22.364Z,18.40
2018-07-07T23:00:33.048Z,18.40
2018-07-07T23:04:36.295Z,18.30
2018-07-07T23:08:39.513Z,18.30
2018-07-07T23:12:42.936Z,18.20
2018-07-07T23:16:46.157Z,18.20
2018-07-07T23:20:49.374Z,18.10
2018-07-07T23:24:52.598Z,18.10
2018-07-07T23:28:55.820Z,17.90
2018-07-07T23:32:59.076Z,17.80
2018-07-07T23:37:02.302Z,17.70
2018-07-07T23:41:05.522Z,17.60
2018-07-07T23:45:10.056Z,17.50
2018-07-07T23:49:13.277Z,17.40
2018-07-07T23:53:16.533Z,17.30
2018-07-07T23:57:19.770Z,17.30
